sensor_id;sensor_type;location;lat;lon;timestamp;P1;durP1;ratioP1;P2;durP2;ratioP2
4407;SDS011;2217;48.460;7.934;2022-12-18T00:00:45;1.30;;;0.80;;
4407;SDS011;2217;48.460;7.934;2022-12-18T00:03:13;1.30;;;0.80;;
4407;SDS011;2217;48.460;7.934;2022-12-18T00:05:47;1.30;;;0.80;;
4407;SDS011;2217;48.460;7.934;2022-12-18T00:08:14;1.30;;;0.80;;
4407;SDS011;2217;48.460;7.934;2022-12-18T00:10:42;1.30;;;0.80;;
4407;SDS011;2217;48.460;7.934;2022-12-18T00:13:09;1.30;;;0.80;;
4407;SDS011;2217;48.460;7.934;2022-12-18T00:15:37;1.30;;;0.90;;
4407;SDS011;2217;48.460;7.934;2022-12-18T00:18:05;1.30;;;0.70;;
4407;SDS011;2217;48.460;7.934;2022-12-18T00:20:35;1.30;;;0.80;;
4407;SDS011;2217;48.460;7.934;2022-12-18T00:23:04;1.30;;;0.80;;
4407;SDS011;2217;48.460;7.934;2022-12-18T00:25:32;1.30;;;0.80;;
4407;SDS011;2217;48.460;7.934;2022-12-18T00:28:00;1.30;;;0.80;;
4407;SDS011;2217;48.460;7.934;2022-12-18T00:30:27;1.30;;;0.80;;
4407;SDS011;2217;48.460;7.934;2022-12-18T00:32:54;1.30;;;0.80;;
4407;SDS011;2217;48.460;7.934;2022-12-18T00:35:21;1.30;;;0.87;;
4407;SDS011;2217;48.460;7.934;2022-12-18T00:37:48;1.30;;;0.80;;
4407;SDS011;2217;48.460;7.934;2022-12-18T00:40:17;1.30;;;0.80;;
4407;SDS011;2217;48.460;7.934;2022-12-18T00:42:44;1.30;;;0.80;;
4407;SDS011;2217;48.460;7.934;2022-12-18T00:45:26;1.30;;;0.80;;
4407;SDS011;2217;48.460;7.934;2022-12-18T00:47:54;1.30;;;0.80;;
4407;SDS011;2217;48.460;7.934;2022-12-18T00:50:21;1.30;;;0.80;;
4407;SDS011;2217;48.460;7.934;2022-12-18T00:52:48;1.30;;;0.90;;
4407;SDS011;2217;48.460;7.934;2022-12-18T00:55:17;1.30;;;0.70;;
4407;SDS011;2217;48.460;7.934;2022-12-18T00:57:45;1.30;;;0.80;;
4407;SDS011;2217;48.460;7.934;2022-12-18T01:00:13;1.30;;;0.80;;
4407;SDS011;2217;48.460;7.934;2022-12-18T01:02:41;1.30;;;0.80;;
4407;SDS011;2217;48.460;7.934;2022-12-18T01:05:08;1.30;;;0.80;;
4407;SDS011;2217;48.460;7.934;2022-12-18T01:07:36;1.30;;;0.90;;
4407;SDS011;2217;48.460;7.934;2022-12-18T01:10:03;1.30;;;0.80;;
4407;SDS011;2217;48.460;7.934;2022-12-18T01:15:01;1.30;;;0.80;;
4407;SDS011;2217;48.460;7.934;2022-12-18T01:17:28;1.27;;;0.90;;
4407;SDS011;2217;48.460;7.934;2022-12-18T01:19:56;1.30;;;0.80;;
4407;SDS011;2217;48.460;7.934;2022-12-18T01:22:23;1.30;;;0.70;;
4407;SDS011;2217;48.460;7.934;2022-12-18T01:24:50;1.30;;;0.80;;
4407;SDS011;2217;48.460;7.934;2022-12-18T01:27:17;1.30;;;0.80;;
4407;SDS011;2217;48.460;7.934;2022-12-18T01:29:44;1.27;;;0.80;;
4407;SDS011;2217;48.460;7.934;2022-12-18T01:32:13;1.30;;;0.80;;
4407;SDS011;2217;48.460;7.934;2022-12-18T01:34:40;1.30;;;0.80;;
4407;SDS011;2217;48.460;7.934;2022-12-18T01:37:07;1.30;;;0.80;;
4407;SDS011;2217;48.460;7.934;2022-12-18T01:39:34;1.30;;;0.80;;
4407;SDS011;2217;48.460;7.934;2022-12-18T01:42:05;1.30;;;0.80;;
4407;SDS011;2217;48.460;7.934;2022-12-18T01:47:23;1.30;;;0.80;;
4407;SDS011;2217;48.460;7.934;2022-12-18T01:49:51;1.27;;;0.80;;
4407;SDS011;2217;48.460;7.934;2022-12-18T01:52:18;1.30;;;0.80;;
4407;SDS011;2217;48.460;7.934;2022-12-18T01:54:46;1.30;;;0.80;;
4407;SDS011;2217;48.460;7.934;2022-12-18T01:57:14;1.30;;;0.80;;
4407;SDS011;2217;48.460;7.934;2022-12-18T01:59:41;1.30;;;0.70;;
4407;SDS011;2217;48.460;7.934;2022-12-18T02:02:09;1.30;;;0.80;;
4407;SDS011;2217;48.460;7.934;2022-12-18T02:04:40;1.30;;;0.80;;
4407;SDS011;2217;48.460;7.934;2022-12-18T02:07:09;1.30;;;0.80;;
4407;SDS011;2217;48.460;7.934;2022-12-18T02:09:43;1.30;;;0.80;;
4407;SDS011;2217;48.460;7.934;2022-12-18T02:12:13;1.30;;;0.90;;
4407;SDS011;2217;48.460;7.934;2022-12-18T02:14:44;1.30;;;0.80;;
4407;SDS011;2217;48.460;7.934;2022-12-18T02:17:13;1.30;;;0.87;;
4407;SDS011;2217;48.460;7.934;2022-12-18T02:19:47;1.30;;;0.80;;
4407;SDS011;2217;48.460;7.934;2022-12-18T02:22:24;1.30;;;0.80;;
4407;SDS011;2217;48.460;7.934;2022-12-18T02:24:57;1.30;;;0.80;;
4407;SDS011;2217;48.460;7.934;2022-12-18T02:27:28;1.30;;;0.80;;
4407;SDS011;2217;48.460;7.934;2022-12-18T02:29:56;1.30;;;0.80;;
4407;SDS011;2217;48.460;7.934;2022-12-18T02:32:24;1.30;;;0.90;;
4407;SDS011;2217;48.460;7.934;2022-12-18T02:34:52;1.30;;;0.80;;
4407;SDS011;2217;48.460;7.934;2022-12-18T02:37:20;1.30;;;0.80;;
4407;SDS011;2217;48.460;7.934;2022-12-18T02:39:49;1.30;;;0.80;;
4407;SDS011;2217;48.460;7.934;2022-12-18T02:42:19;1.30;;;0.90;;
4407;SDS011;2217;48.460;7.934;2022-12-18T02:44:48;1.30;;;0.90;;
4407;SDS011;2217;48.460;7.934;2022-12-18T02:47:16;1.30;;;0.90;;
4407;SDS011;2217;48.460;7.934;2022-12-18T02:49:48;1.30;;;0.80;;
4407;SDS011;2217;48.460;7.934;2022-12-18T02:52:18;1.30;;;0.90;;
4407;SDS011;2217;48.460;7.934;2022-12-18T02:54:54;1.30;;;0.80;;
4407;SDS011;2217;48.460;7.934;2022-12-18T03:15:36;1.30;;;0.90;;
4407;SDS011;2217;48.460;7.934;2022-12-18T03:18:06;1.30;;;0.80;;
4407;SDS011;2217;48.460;7.934;2022-12-18T03:20:34;1.30;;;0.80;;
4407;SDS011;2217;48.460;7.934;2022-12-18T03:23:05;1.30;;;0.90;;
4407;SDS011;2217;48.460;7.934;2022-12-18T03:25:34;1.30;;;0.80;;
4407;SDS011;2217;48.460;7.934;2022-12-18T03:28:02;1.30;;;0.80;;
4407;SDS011;2217;48.460;7.934;2022-12-18T03:30:34;1.30;;;0.80;;
4407;SDS011;2217;48.460;7.934;2022-12-18T03:33:05;1.30;;;0.80;;
4407;SDS011;2217;48.460;7.934;2022-12-18T03:35:35;1.30;;;0.80;;
4407;SDS011;2217;48.460;7.934;2022-12-18T03:38:04;1.30;;;0.80;;
4407;SDS011;2217;48.460;7.934;2022-12-18T03:40:33;1.30;;;0.70;;
4407;SDS011;2217;48.460;7.934;2022-12-18T03:43:02;1.30;;;0.87;;
4407;SDS011;2217;48.460;7.934;2022-12-18T03:45:31;1.30;;;0.70;;
4407;SDS011;2217;48.460;7.934;2022-12-18T03:48:01;1.30;;;0.80;;
4407;SDS011;2217;48.460;7.934;2022-12-18T03:50:32;1.30;;;0.80;;
4407;SDS011;2217;48.460;7.934;2022-12-18T03:53:05;1.30;;;0.80;;
4407;SDS011;2217;48.460;7.934;2022-12-18T03:55:35;1.30;;;0.80;;
4407;SDS011;2217;48.460;7.934;2022-12-18T03:58:03;1.30;;;0.80;;
4407;SDS011;2217;48.460;7.934;2022-12-18T04:00:32;1.30;;;0.80;;
4407;SDS011;2217;48.460;7.934;2022-12-18T04:03:02;1.30;;;0.80;;
4407;SDS011;2217;48.460;7.934;2022-12-18T04:05:31;1.30;;;0.87;;
4407;SDS011;2217;48.460;7.934;2022-12-18T04:07:59;1.30;;;0.80;;
4407;SDS011;2217;48.460;7.934;2022-12-18T04:10:27;1.30;;;0.80;;
4407;SDS011;2217;48.460;7.934;2022-12-18T04:12:55;1.30;;;0.80;;
4407;SDS011;2217;48.460;7.934;2022-12-18T04:15:23;1.30;;;0.90;;
4407;SDS011;2217;48.460;7.934;2022-12-18T04:17:50;1.30;;;0.80;;
4407;SDS011;2217;48.460;7.934;2022-12-18T04:20:18;1.30;;;0.80;;
4407;SDS011;2217;48.460;7.934;2022-12-18T04:22:46;1.30;;;0.70;;
4407;SDS011;2217;48.460;7.934;2022-12-18T04:25:13;1.30;;;0.90;;
4407;SDS011;2217;48.460;7.934;2022-12-18T04:27:40;1.30;;;0.80;;
4407;SDS011;2217;48.460;7.934;2022-12-18T04:30:07;1.30;;;0.90;;
4407;SDS011;2217;48.460;7.934;2022-12-18T04:32:34;1.30;;;0.80;;
4407;SDS011;2217;48.460;7.934;2022-12-18T04:35:02;1.30;;;0.80;;
4407;SDS011;2217;48.460;7.934;2022-12-18T04:37:33;1.30;;;0.80;;
4407;SDS011;2217;48.460;7.934;2022-12-18T04:40:00;1.30;;;0.80;;
4407;SDS011;2217;48.460;7.934;2022-12-18T04:42:27;1.30;;;0.80;;
4407;SDS011;2217;48.460;7.934;2022-12-18T04:44:54;1.30;;;0.80;;
4407;SDS011;2217;48.460;7.934;2022-12-18T04:47:21;1.30;;;0.80;;
4407;SDS011;2217;48.460;7.934;2022-12-18T04:49:48;1.30;;;0.83;;
4407;SDS011;2217;48.460;7.934;2022-12-18T04:52:15;1.30;;;0.80;;
4407;SDS011;2217;48.460;7.934;2022-12-18T04:54:44;1.30;;;0.83;;
4407;SDS011;2217;48.460;7.934;2022-12-18T04:57:11;1.30;;;0.70;;
4407;SDS011;2217;48.460;7.934;2022-12-18T04:59:38;1.30;;;0.80;;
4407;SDS011;2217;48.460;7.934;2022-12-18T05:02:05;1.30;;;0.80;;
4407;SDS011;2217;48.460;7.934;2022-12-18T05:04:33;1.30;;;0.80;;
4407;SDS011;2217;48.460;7.934;2022-12-18T05:07:01;1.27;;;0.80;;
4407;SDS011;2217;48.460;7.934;2022-12-18T05:09:28;1.30;;;0.90;;
4407;SDS011;2217;48.460;7.934;2022-12-18T05:11:56;1.30;;;0.80;;
4407;SDS011;2217;48.460;7.934;2022-12-18T05:14:23;1.30;;;0.80;;
4407;SDS011;2217;48.460;7.934;2022-12-18T05:16:52;1.30;;;0.90;;
4407;SDS011;2217;48.460;7.934;2022-12-18T05:19:19;1.30;;;0.80;;
4407;SDS011;2217;48.460;7.934;2022-12-18T05:21:47;1.30;;;0.80;;
4407;SDS011;2217;48.460;7.934;2022-12-18T05:24:14;1.30;;;0.90;;
4407;SDS011;2217;48.460;7.934;2022-12-18T05:26:41;1.30;;;0.80;;
4407;SDS011;2217;48.460;7.934;2022-12-18T05:29:10;1.30;;;0.90;;
4407;SDS011;2217;48.460;7.934;2022-12-18T05:31:37;1.30;;;0.83;;
4407;SDS011;2217;48.460;7.934;2022-12-18T05:34:04;1.30;;;0.90;;
4407;SDS011;2217;48.460;7.934;2022-12-18T05:36:32;1.30;;;0.90;;
4407;SDS011;2217;48.460;7.934;2022-12-18T05:38:59;1.30;;;0.90;;
4407;SDS011;2217;48.460;7.934;2022-12-18T05:41:26;1.30;;;0.90;;
4407;SDS011;2217;48.460;7.934;2022-12-18T05:43:53;1.30;;;0.80;;
4407;SDS011;2217;48.460;7.934;2022-12-18T05:46:22;1.30;;;0.80;;
4407;SDS011;2217;48.460;7.934;2022-12-18T05:48:49;1.30;;;0.90;;
4407;SDS011;2217;48.460;7.934;2022-12-18T05:51:18;1.30;;;0.80;;
4407;SDS011;2217;48.460;7.934;2022-12-18T05:53:45;1.30;;;0.80;;
4407;SDS011;2217;48.460;7.934;2022-12-18T05:56:13;1.30;;;0.80;;
4407;SDS011;2217;48.460;7.934;2022-12-18T05:58:41;1.30;;;0.90;;
4407;SDS011;2217;48.460;7.934;2022-12-18T06:01:08;1.30;;;0.80;;
4407;SDS011;2217;48.460;7.934;2022-12-18T06:03:38;1.30;;;0.90;;
4407;SDS011;2217;48.460;7.934;2022-12-18T06:06:12;1.30;;;0.90;;
4407;SDS011;2217;48.460;7.934;2022-12-18T06:08:39;1.30;;;0.90;;
4407;SDS011;2217;48.460;7.934;2022-12-18T06:11:06;1.30;;;0.90;;
4407;SDS011;2217;48.460;7.934;2022-12-18T06:13:33;1.30;;;0.80;;
4407;SDS011;2217;48.460;7.934;2022-12-18T06:16:01;1.30;;;0.90;;
4407;SDS011;2217;48.460;7.934;2022-12-18T06:18:28;1.30;;;0.80;;
4407;SDS011;2217;48.460;7.934;2022-12-18T06:20:57;1.30;;;0.87;;
4407;SDS011;2217;48.460;7.934;2022-12-18T06:23:24;1.30;;;0.80;;
4407;SDS011;2217;48.460;7.934;2022-12-18T06:25:52;1.30;;;0.80;;
4407;SDS011;2217;48.460;7.934;2022-12-18T06:28:19;1.30;;;0.87;;
4407;SDS011;2217;48.460;7.934;2022-12-18T06:30:47;1.30;;;0.90;;
4407;SDS011;2217;48.460;7.934;2022-12-18T06:33:14;1.30;;;0.83;;
4407;SDS011;2217;48.460;7.934;2022-12-18T06:35:41;1.30;;;0.80;;
4407;SDS011;2217;48.460;7.934;2022-12-18T06:38:10;1.30;;;0.90;;
4407;SDS011;2217;48.460;7.934;2022-12-18T06:40:37;1.27;;;0.80;;
4407;SDS011;2217;48.460;7.934;2022-12-18T06:43:06;1.30;;;0.87;;
4407;SDS011;2217;48.460;7.934;2022-12-18T06:45:37;1.30;;;0.80;;
4407;SDS011;2217;48.460;7.934;2022-12-18T06:48:04;1.30;;;0.90;;
4407;SDS011;2217;48.460;7.934;2022-12-18T06:50:31;1.30;;;0.90;;
4407;SDS011;2217;48.460;7.934;2022-12-18T06:52:59;1.30;;;1.00;;
4407;SDS011;2217;48.460;7.934;2022-12-18T06:55:27;1.30;;;0.87;;
4407;SDS011;2217;48.460;7.934;2022-12-18T06:57:54;1.30;;;0.90;;
4407;SDS011;2217;48.460;7.934;2022-12-18T07:00:21;1.30;;;0.97;;
4407;SDS011;2217;48.460;7.934;2022-12-18T07:02:49;1.30;;;0.90;;
4407;SDS011;2217;48.460;7.934;2022-12-18T07:05:16;1.30;;;0.80;;
4407;SDS011;2217;48.460;7.934;2022-12-18T07:07:44;1.30;;;0.90;;
4407;SDS011;2217;48.460;7.934;2022-12-18T07:10:11;1.30;;;0.80;;
4407;SDS011;2217;48.460;7.934;2022-12-18T07:12:39;1.30;;;0.80;;
4407;SDS011;2217;48.460;7.934;2022-12-18T07:15:07;1.30;;;0.83;;
4407;SDS011;2217;48.460;7.934;2022-12-18T07:17:34;1.30;;;0.80;;
4407;SDS011;2217;48.460;7.934;2022-12-18T07:20:01;1.30;;;0.80;;
4407;SDS011;2217;48.460;7.934;2022-12-18T07:22:28;1.30;;;0.80;;
4407;SDS011;2217;48.460;7.934;2022-12-18T07:24:56;1.30;;;0.90;;
4407;SDS011;2217;48.460;7.934;2022-12-18T07:27:23;1.30;;;0.90;;
4407;SDS011;2217;48.460;7.934;2022-12-18T07:29:52;1.30;;;0.80;;
4407;SDS011;2217;48.460;7.934;2022-12-18T07:32:20;1.30;;;0.80;;
4407;SDS011;2217;48.460;7.934;2022-12-18T07:34:47;1.30;;;0.80;;
4407;SDS011;2217;48.460;7.934;2022-12-18T07:37:14;1.30;;;0.80;;
4407;SDS011;2217;48.460;7.934;2022-12-18T07:39:41;1.30;;;0.80;;
4407;SDS011;2217;48.460;7.934;2022-12-18T07:42:09;1.30;;;0.80;;
4407;SDS011;2217;48.460;7.934;2022-12-18T07:44:51;1.30;;;0.87;;
4407;SDS011;2217;48.460;7.934;2022-12-18T07:47:19;1.30;;;0.90;;
4407;SDS011;2217;48.460;7.934;2022-12-18T07:49:46;1.30;;;0.90;;
4407;SDS011;2217;48.460;7.934;2022-12-18T07:52:13;1.30;;;0.90;;
4407;SDS011;2217;48.460;7.934;2022-12-18T07:54:40;1.30;;;0.80;;
4407;SDS011;2217;48.460;7.934;2022-12-18T07:57:08;1.30;;;0.80;;
4407;SDS011;2217;48.460;7.934;2022-12-18T07:59:35;1.30;;;0.90;;
4407;SDS011;2217;48.460;7.934;2022-12-18T08:02:04;1.30;;;0.87;;
4407;SDS011;2217;48.460;7.934;2022-12-18T08:04:31;1.30;;;0.90;;
4407;SDS011;2217;48.460;7.934;2022-12-18T08:06:58;1.30;;;0.80;;
4407;SDS011;2217;48.460;7.934;2022-12-18T08:09:26;1.30;;;1.00;;
4407;SDS011;2217;48.460;7.934;2022-12-18T08:11:53;1.23;;;0.80;;
4407;SDS011;2217;48.460;7.934;2022-12-18T08:14:20;1.30;;;0.90;;
4407;SDS011;2217;48.460;7.934;2022-12-18T08:16:47;1.30;;;0.90;;
4407;SDS011;2217;48.460;7.934;2022-12-18T08:19:16;1.30;;;0.80;;
4407;SDS011;2217;48.460;7.934;2022-12-18T08:21:43;1.30;;;0.90;;
4407;SDS011;2217;48.460;7.934;2022-12-18T08:24:11;1.30;;;0.80;;
4407;SDS011;2217;48.460;7.934;2022-12-18T08:26:38;1.30;;;0.80;;
4407;SDS011;2217;48.460;7.934;2022-12-18T08:29:05;1.30;;;0.80;;
4407;SDS011;2217;48.460;7.934;2022-12-18T08:31:32;1.30;;;0.80;;
4407;SDS011;2217;48.460;7.934;2022-12-18T08:34:00;1.30;;;0.80;;
4407;SDS011;2217;48.460;7.934;2022-12-18T08:36:28;1.30;;;0.90;;
4407;SDS011;2217;48.460;7.934;2022-12-18T08:38:56;1.30;;;0.80;;
4407;SDS011;2217;48.460;7.934;2022-12-18T08:41:23;1.30;;;0.90;;
4407;SDS011;2217;48.460;7.934;2022-12-18T08:43:50;1.30;;;0.90;;
4407;SDS011;2217;48.460;7.934;2022-12-18T08:46:35;1.30;;;0.90;;
4407;SDS011;2217;48.460;7.934;2022-12-18T08:49:03;1.30;;;0.87;;
4407;SDS011;2217;48.460;7.934;2022-12-18T08:51:33;1.30;;;0.90;;
4407;SDS011;2217;48.460;7.934;2022-12-18T08:54:00;1.30;;;0.90;;
4407;SDS011;2217;48.460;7.934;2022-12-18T08:56:27;1.30;;;0.80;;
4407;SDS011;2217;48.460;7.934;2022-12-18T08:58:55;1.30;;;0.80;;
4407;SDS011;2217;48.460;7.934;2022-12-18T09:01:23;1.30;;;0.80;;
4407;SDS011;2217;48.460;7.934;2022-12-18T09:03:50;1.30;;;0.80;;
4407;SDS011;2217;48.460;7.934;2022-12-18T09:06:18;1.30;;;0.70;;
4407;SDS011;2217;48.460;7.934;2022-12-18T09:08:47;1.30;;;0.80;;
4407;SDS011;2217;48.460;7.934;2022-12-18T09:11:15;1.30;;;0.80;;
4407;SDS011;2217;48.460;7.934;2022-12-18T09:13:45;1.30;;;0.90;;
4407;SDS011;2217;48.460;7.934;2022-12-18T09:16:12;1.30;;;0.80;;
4407;SDS011;2217;48.460;7.934;2022-12-18T09:18:39;1.30;;;0.90;;
4407;SDS011;2217;48.460;7.934;2022-12-18T09:21:07;1.30;;;0.80;;
4407;SDS011;2217;48.460;7.934;2022-12-18T09:23:35;1.30;;;0.80;;
4407;SDS011;2217;48.460;7.934;2022-12-18T09:26:03;1.30;;;0.80;;
4407;SDS011;2217;48.460;7.934;2022-12-18T09:28:31;1.30;;;0.80;;
4407;SDS011;2217;48.460;7.934;2022-12-18T09:30:58;1.30;;;0.80;;
4407;SDS011;2217;48.460;7.934;2022-12-18T09:33:25;1.30;;;0.90;;
4407;SDS011;2217;48.460;7.934;2022-12-18T09:35:52;1.30;;;0.80;;
4407;SDS011;2217;48.460;7.934;2022-12-18T09:38:19;1.30;;;0.80;;
4407;SDS011;2217;48.460;7.934;2022-12-18T09:40:48;1.30;;;0.80;;
4407;SDS011;2217;48.460;7.934;2022-12-18T09:43:18;1.30;;;0.90;;
4407;SDS011;2217;48.460;7.934;2022-12-18T09:45:49;1.30;;;0.80;;
4407;SDS011;2217;48.460;7.934;2022-12-18T09:48:18;1.30;;;0.90;;
4407;SDS011;2217;48.460;7.934;2022-12-18T09:50:48;1.30;;;0.87;;
4407;SDS011;2217;48.460;7.934;2022-12-18T09:53:15;1.30;;;0.80;;
4407;SDS011;2217;48.460;7.934;2022-12-18T09:55:45;1.30;;;0.80;;
4407;SDS011;2217;48.460;7.934;2022-12-18T09:58:13;1.30;;;0.90;;
4407;SDS011;2217;48.460;7.934;2022-12-18T10:00:43;1.30;;;0.80;;
4407;SDS011;2217;48.460;7.934;2022-12-18T10:03:11;1.30;;;0.87;;
4407;SDS011;2217;48.460;7.934;2022-12-18T10:05:40;1.30;;;0.80;;
4407;SDS011;2217;48.460;7.934;2022-12-18T10:08:10;1.30;;;0.80;;
4407;SDS011;2217;48.460;7.934;2022-12-18T10:10:42;1.30;;;0.80;;
4407;SDS011;2217;48.460;7.934;2022-12-18T10:13:15;1.30;;;0.90;;
4407;SDS011;2217;48.460;7.934;2022-12-18T10:15:50;1.30;;;0.80;;
4407;SDS011;2217;48.460;7.934;2022-12-18T10:18:25;1.30;;;0.80;;
4407;SDS011;2217;48.460;7.934;2022-12-18T10:20:56;1.30;;;0.90;;
4407;SDS011;2217;48.460;7.934;2022-12-18T10:23:28;1.30;;;0.80;;
4407;SDS011;2217;48.460;7.934;2022-12-18T10:25:59;1.30;;;0.80;;
4407;SDS011;2217;48.460;7.934;2022-12-18T10:28:29;1.30;;;0.90;;
4407;SDS011;2217;48.460;7.934;2022-12-18T10:30:58;1.30;;;0.90;;
4407;SDS011;2217;48.460;7.934;2022-12-18T10:33:28;1.30;;;0.80;;
4407;SDS011;2217;48.460;7.934;2022-12-18T10:35:56;1.30;;;0.80;;
4407;SDS011;2217;48.460;7.934;2022-12-18T10:38:24;1.30;;;0.90;;
4407;SDS011;2217;48.460;7.934;2022-12-18T10:40:53;1.30;;;0.80;;
4407;SDS011;2217;48.460;7.934;2022-12-18T10:43:21;1.30;;;0.80;;
4407;SDS011;2217;48.460;7.934;2022-12-18T10:46:00;1.30;;;0.80;;
4407;SDS011;2217;48.460;7.934;2022-12-18T10:48:27;1.30;;;0.80;;
4407;SDS011;2217;48.460;7.934;2022-12-18T10:50:55;1.30;;;0.80;;
4407;SDS011;2217;48.460;7.934;2022-12-18T10:53:23;1.40;;;0.90;;
4407;SDS011;2217;48.460;7.934;2022-12-18T10:55:52;1.30;;;0.80;;
4407;SDS011;2217;48.460;7.934;2022-12-18T10:58:21;1.40;;;0.90;;
4407;SDS011;2217;48.460;7.934;2022-12-18T11:01:02;1.37;;;0.80;;
4407;SDS011;2217;48.460;7.934;2022-12-18T11:03:31;1.37;;;0.80;;
4407;SDS011;2217;48.460;7.934;2022-12-18T11:06:04;1.40;;;0.80;;
4407;SDS011;2217;48.460;7.934;2022-12-18T11:08:33;1.40;;;0.80;;
4407;SDS011;2217;48.460;7.934;2022-12-18T11:11:00;1.40;;;0.80;;
4407;SDS011;2217;48.460;7.934;2022-12-18T11:13:28;1.40;;;0.80;;
4407;SDS011;2217;48.460;7.934;2022-12-18T11:15:56;1.43;;;0.80;;
4407;SDS011;2217;48.460;7.934;2022-12-18T11:18:26;1.47;;;0.80;;
4407;SDS011;2217;48.460;7.934;2022-12-18T11:20:55;1.40;;;0.80;;
4407;SDS011;2217;48.460;7.934;2022-12-18T11:23:23;1.40;;;0.80;;
4407;SDS011;2217;48.460;7.934;2022-12-18T11:25:51;1.40;;;0.80;;
4407;SDS011;2217;48.460;7.934;2022-12-18T11:28:26;1.43;;;0.87;;
4407;SDS011;2217;48.460;7.934;2022-12-18T11:31:08;1.47;;;0.90;;
4407;SDS011;2217;48.460;7.934;2022-12-18T11:33:39;1.47;;;0.80;;
4407;SDS011;2217;48.460;7.934;2022-12-18T11:36:08;1.40;;;0.90;;
4407;SDS011;2217;48.460;7.934;2022-12-18T11:38:35;1.47;;;0.80;;
4407;SDS011;2217;48.460;7.934;2022-12-18T11:41:05;1.50;;;0.90;;
4407;SDS011;2217;48.460;7.934;2022-12-18T11:43:35;1.40;;;0.80;;
4407;SDS011;2217;48.460;7.934;2022-12-18T11:46:06;1.47;;;0.80;;
4407;SDS011;2217;48.460;7.934;2022-12-18T11:48:38;1.40;;;0.80;;
4407;SDS011;2217;48.460;7.934;2022-12-18T11:51:09;1.40;;;0.80;;
4407;SDS011;2217;48.460;7.934;2022-12-18T11:53:39;1.43;;;0.90;;
4407;SDS011;2217;48.460;7.934;2022-12-18T11:56:12;1.43;;;0.80;;
4407;SDS011;2217;48.460;7.934;2022-12-18T11:58:44;1.40;;;0.80;;
4407;SDS011;2217;48.460;7.934;2022-12-18T12:01:15;1.43;;;0.90;;
4407;SDS011;2217;48.460;7.934;2022-12-18T12:03:58;1.40;;;0.90;;
4407;SDS011;2217;48.460;7.934;2022-12-18T12:06:30;1.40;;;0.90;;
4407;SDS011;2217;48.460;7.934;2022-12-18T12:09:02;1.43;;;0.80;;
4407;SDS011;2217;48.460;7.934;2022-12-18T12:11:34;1.40;;;0.90;;
4407;SDS011;2217;48.460;7.934;2022-12-18T12:14:15;1.43;;;0.90;;
4407;SDS011;2217;48.460;7.934;2022-12-18T12:16:45;1.40;;;0.80;;
4407;SDS011;2217;48.460;7.934;2022-12-18T12:19:23;1.40;;;0.80;;
4407;SDS011;2217;48.460;7.934;2022-12-18T12:21:54;1.43;;;0.90;;
4407;SDS011;2217;48.460;7.934;2022-12-18T12:24:27;1.47;;;0.87;;
4407;SDS011;2217;48.460;7.934;2022-12-18T12:26:57;1.47;;;0.80;;
4407;SDS011;2217;48.460;7.934;2022-12-18T12:29:32;1.40;;;0.80;;
4407;SDS011;2217;48.460;7.934;2022-12-18T12:32:07;1.50;;;0.80;;
4407;SDS011;2217;48.460;7.934;2022-12-18T12:34:42;1.40;;;0.80;;
4407;SDS011;2217;48.460;7.934;2022-12-18T12:37:19;1.50;;;0.80;;
4407;SDS011;2217;48.460;7.934;2022-12-18T12:39:48;1.40;;;0.80;;
4407;SDS011;2217;48.460;7.934;2022-12-18T12:42:18;1.43;;;0.90;;
4407;SDS011;2217;48.460;7.934;2022-12-18T12:45:05;1.47;;;0.80;;
4407;SDS011;2217;48.460;7.934;2022-12-18T12:47:35;1.43;;;0.90;;
4407;SDS011;2217;48.460;7.934;2022-12-18T12:50:06;1.47;;;0.80;;
4407;SDS011;2217;48.460;7.934;2022-12-18T12:52:39;1.50;;;0.80;;
4407;SDS011;2217;48.460;7.934;2022-12-18T12:57:54;1.50;;;0.80;;
4407;SDS011;2217;48.460;7.934;2022-12-18T13:00:23;1.40;;;0.80;;
4407;SDS011;2217;48.460;7.934;2022-12-18T13:02:51;1.40;;;0.80;;
4407;SDS011;2217;48.460;7.934;2022-12-18T13:05:21;1.50;;;0.80;;
4407;SDS011;2217;48.460;7.934;2022-12-18T13:07:51;1.47;;;0.90;;
4407;SDS011;2217;48.460;7.934;2022-12-18T13:10:25;1.43;;;0.80;;
4407;SDS011;2217;48.460;7.934;2022-12-18T13:12:53;1.47;;;0.90;;
4407;SDS011;2217;48.460;7.934;2022-12-18T13:15:24;1.40;;;0.80;;
4407;SDS011;2217;48.460;7.934;2022-12-18T13:18:02;1.43;;;0.80;;
4407;SDS011;2217;48.460;7.934;2022-12-18T13:20:34;1.40;;;0.80;;
4407;SDS011;2217;48.460;7.934;2022-12-18T13:23:04;1.43;;;0.80;;
4407;SDS011;2217;48.460;7.934;2022-12-18T13:25:45;1.40;;;0.90;;
4407;SDS011;2217;48.460;7.934;2022-12-18T13:28:13;1.43;;;0.80;;
4407;SDS011;2217;48.460;7.934;2022-12-18T13:30:51;1.50;;;0.90;;
4407;SDS011;2217;48.460;7.934;2022-12-18T13:33:38;1.50;;;0.80;;
4407;SDS011;2217;48.460;7.934;2022-12-18T13:36:12;1.40;;;0.90;;
4407;SDS011;2217;48.460;7.934;2022-12-18T13:38:40;1.47;;;0.80;;
4407;SDS011;2217;48.460;7.934;2022-12-18T13:41:22;1.50;;;0.80;;
4407;SDS011;2217;48.460;7.934;2022-12-18T13:43:49;1.47;;;0.80;;
4407;SDS011;2217;48.460;7.934;2022-12-18T13:46:21;1.40;;;0.80;;
4407;SDS011;2217;48.460;7.934;2022-12-18T13:48:50;1.47;;;0.80;;
4407;SDS011;2217;48.460;7.934;2022-12-18T13:51:20;1.50;;;0.90;;
4407;SDS011;2217;48.460;7.934;2022-12-18T13:53:48;1.50;;;0.80;;
4407;SDS011;2217;48.460;7.934;2022-12-18T13:56:20;1.50;;;0.80;;
4407;SDS011;2217;48.460;7.934;2022-12-18T13:59:02;1.40;;;0.90;;
4407;SDS011;2217;48.460;7.934;2022-12-18T14:01:30;1.47;;;0.80;;
4407;SDS011;2217;48.460;7.934;2022-12-18T14:04:08;1.50;;;0.80;;
4407;SDS011;2217;48.460;7.934;2022-12-18T14:06:37;1.43;;;0.80;;
4407;SDS011;2217;48.460;7.934;2022-12-18T14:09:04;1.47;;;0.80;;
4407;SDS011;2217;48.460;7.934;2022-12-18T14:11:32;1.40;;;0.80;;
4407;SDS011;2217;48.460;7.934;2022-12-18T14:13:59;1.43;;;0.80;;
4407;SDS011;2217;48.460;7.934;2022-12-18T14:16:26;1.50;;;0.80;;
4407;SDS011;2217;48.460;7.934;2022-12-18T14:18:54;1.50;;;0.90;;
4407;SDS011;2217;48.460;7.934;2022-12-18T14:21:22;1.43;;;0.80;;
4407;SDS011;2217;48.460;7.934;2022-12-18T14:24:03;1.40;;;0.80;;
4407;SDS011;2217;48.460;7.934;2022-12-18T14:26:31;1.50;;;0.90;;
4407;SDS011;2217;48.460;7.934;2022-12-18T14:28:59;1.40;;;0.80;;
4407;SDS011;2217;48.460;7.934;2022-12-18T14:31:27;1.40;;;0.80;;
4407;SDS011;2217;48.460;7.934;2022-12-18T14:33:55;1.47;;;0.80;;
4407;SDS011;2217;48.460;7.934;2022-12-18T14:36:24;1.40;;;0.80;;
4407;SDS011;2217;48.460;7.934;2022-12-18T14:38:53;1.43;;;0.80;;
4407;SDS011;2217;48.460;7.934;2022-12-18T14:41:22;1.43;;;0.80;;
4407;SDS011;2217;48.460;7.934;2022-12-18T14:43:50;1.43;;;0.80;;
4407;SDS011;2217;48.460;7.934;2022-12-18T14:46:31;1.43;;;0.87;;
4407;SDS011;2217;48.460;7.934;2022-12-18T14:48:59;1.40;;;0.80;;
4407;SDS011;2217;48.460;7.934;2022-12-18T14:51:28;1.40;;;0.90;;
4407;SDS011;2217;48.460;7.934;2022-12-18T14:53:56;1.43;;;0.80;;
4407;SDS011;2217;48.460;7.934;2022-12-18T14:56:26;1.40;;;0.70;;
4407;SDS011;2217;48.460;7.934;2022-12-18T14:58:54;1.40;;;0.80;;
4407;SDS011;2217;48.460;7.934;2022-12-18T15:01:26;1.47;;;0.80;;
4407;SDS011;2217;48.460;7.934;2022-12-18T15:03:54;1.40;;;0.80;;
4407;SDS011;2217;48.460;7.934;2022-12-18T15:06:25;1.47;;;0.80;;
4407;SDS011;2217;48.460;7.934;2022-12-18T15:08:53;1.40;;;0.80;;
4407;SDS011;2217;48.460;7.934;2022-12-18T15:11:44;1.43;;;0.80;;
4407;SDS011;2217;48.460;7.934;2022-12-18T15:14:22;1.40;;;0.90;;
4407;SDS011;2217;48.460;7.934;2022-12-18T15:16:50;1.50;;;0.80;;
4407;SDS011;2217;48.460;7.934;2022-12-18T15:19:18;1.40;;;0.80;;
4407;SDS011;2217;48.460;7.934;2022-12-18T15:21:47;1.40;;;0.70;;
4407;SDS011;2217;48.460;7.934;2022-12-18T15:24:16;1.43;;;0.90;;
4407;SDS011;2217;48.460;7.934;2022-12-18T15:26:46;1.40;;;0.80;;
4407;SDS011;2217;48.460;7.934;2022-12-18T15:29:18;1.40;;;0.80;;
4407;SDS011;2217;48.460;7.934;2022-12-18T15:31:57;1.40;;;0.80;;
4407;SDS011;2217;48.460;7.934;2022-12-18T15:34:24;1.40;;;0.80;;
4407;SDS011;2217;48.460;7.934;2022-12-18T15:36:51;1.40;;;0.80;;
4407;SDS011;2217;48.460;7.934;2022-12-18T15:39:19;1.40;;;0.80;;
4407;SDS011;2217;48.460;7.934;2022-12-18T15:41:47;1.40;;;0.80;;
4407;SDS011;2217;48.460;7.934;2022-12-18T15:44:32;1.40;;;0.80;;
4407;SDS011;2217;48.460;7.934;2022-12-18T15:47:00;1.40;;;0.80;;
4407;SDS011;2217;48.460;7.934;2022-12-18T15:49:27;1.40;;;0.80;;
4407;SDS011;2217;48.460;7.934;2022-12-18T15:51:54;1.40;;;0.80;;
4407;SDS011;2217;48.460;7.934;2022-12-18T15:54:23;1.40;;;0.80;;